Club Med II — FNIR — position and weather

sailwx.info

Track history (hours):
 
Tides and Currents Weather Stations Pressure Air Temp Water Temp Dewpoint Dewpoint Depression Visibility Wind Speed Wind Dir Waves Ship Positions

Club Med II

Operator: V.Ships Leisure S.A.M

Last reported at 2019-Feb-16 23:27 UTC. Time now 2019-Feb-24 00:06 UTC.
Position N 18°15' W 064°42'.

Length 187 m; draft 5.4 m.

Type: Ship. MMSI: 227194000.

Date/timePositionNaut miles runAvg speedWind from/ knotsBaromVisibWave heightAir tempDewpointWater temp
2019-Feb-16 23:27N 18°15' W 064°42'3 7.9
2019-Feb-16 23:01N 18°17' W 064°39'4 7.6
2019-Feb-16 22:30N 18°21' W 064°38'4 7.8
2019-Feb-16 22:00N 18°23' W 064°35'4 7.9
2019-Feb-16 21:31N 18°25' W 064°31'4 9.0
2019-Feb-16 21:00N 18°27' W 064°27'0 0.0
2019-Feb-16 12:50N 18°27' W 064°27'0 0.0
2019-Feb-16 11:51N 18°27' W 064°27'1 2.8
2019-Feb-16 11:30N 18°26' W 064°27'4 5.8
2019-Feb-16 10:53N 18°23' W 064°25'4 5.2
2019-Feb-16 10:03N 18°23' W 064°21'0 5.3
2019-Feb-16 10:00N 18°23' W 064°21'42 5.6
2019-Feb-16 02:34N 18°15' W 063°37'2 5.1
2019-Feb-16 02:07N 18°15' W 063°35'3 5.3
2019-Feb-16 01:35N 18°14' W 063°32'1 6.9
2019-Feb-16 01:30N 18°14' W 063°31'4 7.0
2019-Feb-16 00:59N 18°14' W 063°28'3 7.1
2019-Feb-16 00:30N 18°13' W 063°24'3 5.9
2019-Feb-15 23:58N 18°12' W 063°21'3 5.6
2019-Feb-15 23:28N 18°12' W 063°18'3 5.7
2019-Feb-15 22:59N 18°11' W 063°15'8 8.2
2019-Feb-15 22:02N 18°12' W 063°07'114.1
2019-Feb-15 22:00N 18°12' W 063°07'0 0.2
2019-Feb-15 19:47N 18°12' W 063°06'0 0.0
2019-Feb-15 18:05N 18°12' W 063°06'0 0.1
2019-Feb-15 17:35N 18°12' W 063°06'0 0.0
2019-Feb-15 16:23N 18°12' W 063°06'0 0.0
2019-Feb-15 14:11N 18°12' W 063°06'0 0.1
2019-Feb-15 13:08N 18°12' W 063°06'0 0.4
2019-Feb-15 12:59N 18°12' W 063°06'1 0.7
2019-Feb-15 11:30N 18°12' W 063°07'5 9.1
2019-Feb-15 11:00N 18°11' W 063°12'5 9.6
2019-Feb-15 10:28N 18°07' W 063°15'5 8.2
2019-Feb-15 09:53N 18°02' W 063°16'6 9.8
2019-Feb-15 09:14N 17°58' W 063°11'3 9.4
2019-Feb-15 08:55N 17°57' W 063°08'5 9.8
2019-Feb-15 08:27N 17°55' W 063°04'510.2
2019-Feb-15 08:00N 17°55' W 062°59'6 4.6
2019-Feb-15 06:36N 17°54' W 062°52'0 0.0
2019-Feb-14 09:36N 17°54' W 062°53'2 3.9
2019-Feb-14 09:12N 17°53' W 062°53'  
2019-Feb-10 07:04N 14°36' W 061°28'512.0
2019-Feb-10 06:41N 14°31' W 061°28'  
Track history (hours):
 
Tides and Currents Weather Stations Pressure Air Temp Water Temp Dewpoint Dewpoint Depression Visibility Wind Speed Wind Dir Waves Ship Positions

Club Med II

Operator: V.Ships Leisure S.A.M

Last reported at 2019-Feb-16 23:27 UTC. Time now 2019-Feb-24 00:06 UTC.
Position N 18°15' W 064°42'.

Length 187 m; draft 5.4 m.

Type: Ship. MMSI: 227194000.

Date/timePositionNaut miles runAvg speedWind from/ knotsBaromVisibWave heightAir tempDewpointWater temp
2019-Feb-16 23:27N 18°15' W 064°42'3 7.9
2019-Feb-16 23:01N 18°17' W 064°39'4 7.6
2019-Feb-16 22:30N 18°21' W 064°38'4 7.8
2019-Feb-16 22:00N 18°23' W 064°35'4 7.9
2019-Feb-16 21:31N 18°25' W 064°31'4 9.0
2019-Feb-16 21:00N 18°27' W 064°27'0 0.0
2019-Feb-16 12:50N 18°27' W 064°27'0 0.0
2019-Feb-16 11:51N 18°27' W 064°27'1 2.8
2019-Feb-16 11:30N 18°26' W 064°27'4 5.8
2019-Feb-16 10:53N 18°23' W 064°25'4 5.2
2019-Feb-16 10:03N 18°23' W 064°21'0 5.3
2019-Feb-16 10:00N 18°23' W 064°21'42 5.6
2019-Feb-16 02:34N 18°15' W 063°37'2 5.1
2019-Feb-16 02:07N 18°15' W 063°35'3 5.3
2019-Feb-16 01:35N 18°14' W 063°32'1 6.9
2019-Feb-16 01:30N 18°14' W 063°31'4 7.0
2019-Feb-16 00:59N 18°14' W 063°28'3 7.1
2019-Feb-16 00:30N 18°13' W 063°24'3 5.9
2019-Feb-15 23:58N 18°12' W 063°21'3 5.6
2019-Feb-15 23:28N 18°12' W 063°18'3 5.7
2019-Feb-15 22:59N 18°11' W 063°15'8 8.2
2019-Feb-15 22:02N 18°12' W 063°07'114.1
2019-Feb-15 22:00N 18°12' W 063°07'0 0.2
2019-Feb-15 19:47N 18°12' W 063°06'0 0.0
2019-Feb-15 18:05N 18°12' W 063°06'0 0.1
2019-Feb-15 17:35N 18°12' W 063°06'0 0.0
2019-Feb-15 16:23N 18°12' W 063°06'0 0.0
2019-Feb-15 14:11N 18°12' W 063°06'0 0.1
2019-Feb-15 13:08N 18°12' W 063°06'0 0.4
2019-Feb-15 12:59N 18°12' W 063°06'1 0.7
2019-Feb-15 11:30N 18°12' W 063°07'5 9.1
2019-Feb-15 11:00N 18°11' W 063°12'5 9.6
2019-Feb-15 10:28N 18°07' W 063°15'5 8.2
2019-Feb-15 09:53N 18°02' W 063°16'6 9.8
2019-Feb-15 09:14N 17°58' W 063°11'3 9.4
2019-Feb-15 08:55N 17°57' W 063°08'5 9.8
2019-Feb-15 08:27N 17°55' W 063°04'510.2
2019-Feb-15 08:00N 17°55' W 062°59'6 4.6
2019-Feb-15 06:36N 17°54' W 062°52'0 0.0
2019-Feb-14 09:36N 17°54' W 062°53'2 3.9
2019-Feb-14 09:12N 17°53' W 062°53'  
2019-Feb-10 07:04N 14°36' W 061°28'512.0
2019-Feb-10 06:41N 14°31' W 061°28'  

Dump ship's entire track history